createdAt,value
2022-09-14T00:00:13.537Z,99119.19
2022-09-14T00:03:01.638Z,99101.91
2022-09-14T00:05:49.731Z,99117.63
2022-09-14T00:08:37.905Z,99090.25
2022-09-14T00:11:29.364Z,99103.84
2022-09-14T00:14:18.355Z,99094.19
2022-09-14T00:17:06.108Z,99093.19
2022-09-14T00:19:53.971Z,99072.56
2022-09-14T00:22:41.856Z,99054.03
2022-09-14T00:25:29.909Z,99089.34
2022-09-14T00:28:17.866Z,99074.88
2022-09-14T00:31:06.972Z,99091.16
2022-09-14T00:33:54.710Z,99073.94
2022-09-14T00:36:47.210Z,99061.25
2022-09-14T00:39:34.948Z,99050.72
2022-09-14T00:42:23.051Z,99071.81
2022-09-14T00:45:18.223Z,99073.28
2022-09-14T00:48:06.002Z,99074.78
2022-09-14T00:50:54.681Z,99074.72
2022-09-14T00:53:43.016Z,99050.31
2022-09-14T00:56:31.470Z,99076.91
2022-09-14T00:59:29.710Z,99078.41
2022-09-14T01:02:21.551Z,99057.25
2022-09-14T01:05:11.615Z,99070.22
2022-09-14T01:08:49.533Z,99093.59
2022-09-14T01:12:11.897Z,99091.34
2022-09-14T01:15:21.452Z,99090.78
2022-09-14T01:18:29.273Z,99075.22
2022-09-14T01:21:32.575Z,99064.25
2022-09-14T01:24:42.616Z,99058.91
2022-09-14T01:27:41.635Z,99048.78
2022-09-14T01:30:33.843Z,99047.09
2022-09-14T01:33:36.621Z,99056.75
2022-09-14T01:36:26.797Z,99027.97
2022-09-14T01:39:16.611Z,99041.84
2022-09-14T01:42:05.083Z,99018.47
2022-09-14T01:44:58.266Z,99026.84
2022-09-14T01:47:52.741Z,99032.16
2022-09-14T01:50:45.173Z,99033.97
2022-09-14T01:53:47.320Z,99019.25
2022-09-14T01:56:42.441Z,99003.78
2022-09-14T01:59:38.497Z,99015.50
2022-09-14T02:02:33.415Z,99021.81
2022-09-14T02:05:38.013Z,98990.59
2022-09-14T02:08:28.318Z,99019.00
2022-09-14T02:11:15.949Z,99019.75
2022-09-14T02:14:04.347Z,99005.22
2022-09-14T02:16:52.113Z,98996.81
2022-09-14T02:19:54.805Z,98973.53
2022-09-14T02:22:42.565Z,98984.66
2022-09-14T02:25:30.854Z,98981.06
2022-09-14T02:28:18.573Z,98973.44
2022-09-14T02:31:47.057Z,98976.47
2022-09-14T02:35:05.833Z,98977.00
2022-09-14T02:38:15.292Z,98972.66
2022-09-14T02:41:19.104Z,98970.16
2022-09-14T02:44:43.546Z,98966.34
2022-09-14T02:47:50.708Z,98957.16
2022-09-14T02:50:56.454Z,98950.34
2022-09-14T02:54:08.903Z,98952.88
2022-09-14T02:57:02.001Z,98957.44
2022-09-14T02:59:49.922Z,98952.91
2022-09-14T03:02:37.677Z,98950.41
2022-09-14T03:05:25.570Z,98946.53
2022-09-14T03:08:13.588Z,98945.50
2022-09-14T03:11:02.115Z,98962.97
2022-09-14T03:13:49.898Z,98953.84
2022-09-14T03:16:39.018Z,98959.09
2022-09-14T03:19:26.773Z,98961.13
2022-09-14T03:22:14.487Z,98959.03
2022-09-14T03:25:02.197Z,98929.13
2022-09-14T03:27:53.550Z,98959.28
2022-09-14T03:30:41.391Z,98949.06
2022-09-14T03:33:29.141Z,98964.56
2022-09-14T03:36:19.744Z,98954.47
2022-09-14T03:39:07.548Z,98963.25
2022-09-14T03:41:55.252Z,98957.47
2022-09-14T03:44:43.380Z,98958.97
2022-09-14T03:47:31.273Z,98943.69
2022-09-14T03:50:20.015Z,98943.69
2022-09-14T03:53:07.899Z,98942.47
2022-09-14T03:55:55.819Z,98922.69
2022-09-14T03:58:45.369Z,98944.72
2022-09-14T04:01:33.264Z,98906.25
2022-09-14T04:04:21.160Z,98935.56
2022-09-14T04:07:08.978Z,98928.19
2022-09-14T04:09:56.756Z,98935.88
2022-09-14T04:12:44.483Z,98905.25
2022-09-14T04:15:32.220Z,98902.13
2022-09-14T04:18:19.976Z,98902.38
2022-09-14T04:21:20.717Z,98909.72
2022-09-14T04:24:15.698Z,98916.31
2022-09-14T04:27:04.248Z,98899.00
2022-09-14T04:29:52.180Z,98869.13
2022-09-14T04:32:39.909Z,98902.06
2022-09-14T04:35:27.655Z,98872.41
2022-09-14T04:38:15.371Z,98889.91
2022-09-14T04:41:16.100Z,98908.44
2022-09-14T04:44:03.860Z,98895.28
2022-09-14T04:46:51.801Z,98900.53
2022-09-14T04:49:39.756Z,98886.31
2022-09-14T04:52:27.526Z,98897.91
2022-09-14T04:55:15.529Z,98880.91
2022-09-14T04:58:03.672Z,98890.53
2022-09-14T05:00:51.380Z,98875.47
2022-09-14T05:03:40.428Z,98886.28
2022-09-14T05:06:32.563Z,98897.16
2022-09-14T05:09:20.467Z,98878.56
2022-09-14T05:12:08.486Z,98882.41
2022-09-14T05:14:56.316Z,98870.75
2022-09-14T05:17:44.043Z,98872.31
2022-09-14T05:20:31.848Z,98879.94
2022-09-14T05:23:19.587Z,98881.34
2022-09-14T05:26:07.610Z,98879.34
2022-09-14T05:28:58.132Z,98887.41
2022-09-14T05:31:46.432Z,98886.38
2022-09-14T05:34:34.197Z,98868.91
2022-09-14T05:37:21.935Z,98858.72
2022-09-14T05:40:10.400Z,98882.09
2022-09-14T05:42:58.209Z,98864.63
2022-09-14T05:45:46.088Z,98874.97
2022-09-14T05:48:35.249Z,98884.44
2022-09-14T05:51:25.425Z,98885.88
2022-09-14T05:54:13.403Z,98877.78
2022-09-14T05:57:01.160Z,98890.97
2022-09-14T05:59:48.904Z,98889.66
2022-09-14T06:02:36.678Z,98873.94
2022-09-14T06:05:25.593Z,98894.44
2022-09-14T06:08:13.417Z,98887.38
2022-09-14T06:11:14.938Z,98882.47
2022-09-14T06:14:04.435Z,98873.88
2022-09-14T06:16:52.193Z,98870.81
2022-09-14T06:19:39.951Z,98837.94
2022-09-14T06:22:27.650Z,98867.75
2022-09-14T06:25:15.347Z,98879.59
2022-09-14T06:28:03.203Z,98859.50
2022-09-14T06:30:51.270Z,98861.25
2022-09-14T06:33:43.716Z,98866.34
2022-09-14T06:36:31.420Z,98859.28
2022-09-14T06:39:19.120Z,98867.63
2022-09-14T06:42:06.957Z,98878.84
2022-09-14T06:44:54.761Z,98861.03
2022-09-14T06:47:42.483Z,98855.38
2022-09-14T06:50:30.173Z,98847.66
2022-09-14T06:53:17.950Z,98826.94
2022-09-14T06:56:05.737Z,98841.13
2022-09-14T06:58:53.800Z,98874.25
2022-09-14T07:01:42.919Z,98879.53
2022-09-14T07:04:30.627Z,98854.75
2022-09-14T07:07:18.364Z,98879.47
2022-09-14T07:10:06.535Z,98857.63
2022-09-14T07:13:03.464Z,98874.28
2022-09-14T07:15:51.918Z,98890.19
2022-09-14T07:18:40.220Z,98889.69
2022-09-14T07:21:29.235Z,98862.22
2022-09-14T07:24:17.031Z,98876.19
2022-09-14T07:27:04.747Z,98857.53
2022-09-14T07:29:52.524Z,98867.44
2022-09-14T07:32:40.340Z,98865.00
2022-09-14T07:35:28.079Z,98861.19
2022-09-14T07:38:17.288Z,98858.84
2022-09-14T07:41:11.398Z,98869.16
2022-09-14T07:44:01.312Z,98868.88
2022-09-14T07:46:49.212Z,98865.22
2022-09-14T07:49:36.970Z,98842.84
2022-09-14T07:52:24.694Z,98845.44
2022-09-14T07:55:12.527Z,98839.75
2022-09-14T07:58:00.297Z,98858.75
2022-09-14T08:00:48.017Z,98855.41
2022-09-14T08:03:36.422Z,98864.41
2022-09-14T08:06:29.023Z,98867.88
2022-09-14T08:09:16.784Z,98853.69
2022-09-14T08:12:05.632Z,98873.66
2022-09-14T08:14:53.612Z,98857.19
2022-09-14T08:17:41.403Z,98870.41
2022-09-14T08:20:29.195Z,98882.00
2022-09-14T08:23:16.918Z,98877.91
2022-09-14T08:26:14.628Z,98890.34
2022-09-14T08:29:04.773Z,98887.63
2022-09-14T08:31:53.131Z,98889.22
2022-09-14T08:34:40.909Z,98894.88
2022-09-14T08:37:28.644Z,98891.84
2022-09-14T08:40:17.984Z,98882.00
2022-09-14T08:43:05.780Z,98891.78
2022-09-14T08:46:03.655Z,98890.25
2022-09-14T08:48:52.429Z,98877.28
2022-09-14T08:51:40.333Z,98884.97
2022-09-14T08:54:28.285Z,98888.34
2022-09-14T08:57:29.150Z,98885.44
2022-09-14T09:00:22.802Z,98875.09
2022-09-14T09:03:46.473Z,98891.38
2022-09-14T09:07:05.793Z,98900.50
2022-09-14T09:09:56.573Z,98919.78
2022-09-14T09:13:06.352Z,98921.66
2022-09-14T09:15:59.789Z,98908.94
2022-09-14T09:18:53.481Z,98900.50
2022-09-14T09:21:47.646Z,98910.72
2022-09-14T09:24:44.795Z,98900.41
2022-09-14T09:27:32.451Z,98876.22
2022-09-14T09:30:20.664Z,98903.38
2022-09-14T09:33:17.314Z,98890.75
2022-09-14T09:36:08.161Z,98895.84
2022-09-14T09:38:55.891Z,98870.22
2022-09-14T09:41:57.687Z,98892.84
2022-09-14T09:45:05.970Z,98872.19
2022-09-14T09:47:53.809Z,98871.31
2022-09-14T09:51:09.615Z,98883.22
2022-09-14T09:54:25.356Z,98873.28
2022-09-14T09:57:37.265Z,98865.69
2022-09-14T10:00:29.585Z,98888.56
2022-09-14T10:03:33.314Z,98879.38
2022-09-14T10:06:21.088Z,98866.81
2022-09-14T10:09:21.875Z,98863.13
2022-09-14T10:12:16.640Z,98873.84
2022-09-14T10:15:44.318Z,98855.34
2022-09-14T10:18:32.164Z,98858.03
2022-09-14T10:21:23.260Z,98853.16
2022-09-14T10:24:21.786Z,98845.50
2022-09-14T10:27:40.613Z,98833.38
2022-09-14T10:30:51.299Z,98840.13
2022-09-14T10:33:40.082Z,98834.03
2022-09-14T10:36:42.724Z,98819.63
2022-09-14T10:39:41.171Z,98818.41
2022-09-14T10:42:39.408Z,98794.50
2022-09-14T10:45:36.076Z,98807.13
2022-09-14T10:49:13.889Z,98776.00
2022-09-14T10:52:12.232Z,98792.34
2022-09-14T10:55:36.931Z,98797.31
2022-09-14T10:59:08.887Z,98807.28
2022-09-14T11:02:31.225Z,98803.72
2022-09-14T11:05:34.788Z,98767.16
2022-09-14T11:08:31.769Z,98804.31
2022-09-14T11:11:47.822Z,98795.97
2022-09-14T11:14:51.623Z,98794.31
2022-09-14T11:18:09.940Z,98806.91
2022-09-14T11:21:30.912Z,98797.84
2022-09-14T11:24:34.628Z,98794.19
2022-09-14T11:27:25.444Z,98803.53
2022-09-14T11:30:21.055Z,98808.69
2022-09-14T11:33:26.853Z,98814.13
2022-09-14T11:36:23.967Z,98814.88
2022-09-14T11:39:22.953Z,98803.66
2022-09-14T11:42:28.934Z,98802.78
2022-09-14T11:45:36.561Z,98796.44
2022-09-14T11:48:57.405Z,98800.84
2022-09-14T11:52:13.265Z,98803.78
2022-09-14T11:55:03.131Z,98794.09
2022-09-14T11:57:50.989Z,98798.81
2022-09-14T12:01:22.202Z,98793.47
2022-09-14T12:04:17.070Z,98780.94
2022-09-14T12:07:05.167Z,98783.75
2022-09-14T12:09:53.835Z,98790.81
2022-09-14T12:12:48.824Z,98786.88
2022-09-14T12:15:39.447Z,98777.66
2022-09-14T12:18:28.095Z,98763.41
2022-09-14T12:21:25.609Z,98750.28
2022-09-14T12:24:21.515Z,98766.19
2022-09-14T12:27:22.763Z,98752.97
2022-09-14T12:30:55.330Z,98760.84
2022-09-14T12:33:46.053Z,98771.47
2022-09-14T12:36:36.449Z,98764.53
2022-09-14T12:39:30.887Z,98759.06
2022-09-14T12:42:32.072Z,98758.47
2022-09-14T12:46:02.173Z,98744.59
2022-09-14T12:48:54.206Z,98755.53
2022-09-14T12:51:49.808Z,98740.81
2022-09-14T12:55:07.458Z,98748.34
2022-09-14T12:58:17.445Z,98760.03
2022-09-14T13:01:31.882Z,98750.22
2022-09-14T13:04:28.755Z,98747.75
2022-09-14T13:07:19.685Z,98738.41
2022-09-14T13:10:20.967Z,98729.44
2022-09-14T13:13:25.457Z,98731.47
2022-09-14T13:16:15.055Z,98734.72
2022-09-14T13:19:10.194Z,98725.66
2022-09-14T13:22:02.785Z,98721.81
2022-09-14T13:24:51.553Z,98714.31
2022-09-14T13:27:39.964Z,98705.53
2022-09-14T13:30:29.478Z,98698.78
2022-09-14T13:33:18.174Z,98692.00
2022-09-14T13:36:07.036Z,98688.28
2022-09-14T13:38:56.500Z,98704.50
2022-09-14T13:41:44.812Z,98711.03
2022-09-14T13:44:49.738Z,98708.91
2022-09-14T13:47:39.673Z,98695.44
2022-09-14T13:50:27.683Z,98704.56
2022-09-14T13:53:49.059Z,98702.84
2022-09-14T13:56:36.821Z,98689.47
2022-09-14T13:59:24.773Z,98700.59
2022-09-14T14:02:14.046Z,98699.00
2022-09-14T14:05:04.029Z,98698.44
2022-09-14T14:07:52.342Z,98690.56
2022-09-14T14:10:46.208Z,98666.88
2022-09-14T14:13:37.461Z,98678.47
2022-09-14T14:16:28.988Z,98673.31
2022-09-14T14:19:31.058Z,98680.91
2022-09-14T14:22:26.114Z,98680.72
2022-09-14T14:25:28.888Z,98679.28
2022-09-14T14:28:26.497Z,98663.06
2022-09-14T14:31:19.691Z,98672.50
2022-09-14T14:34:33.993Z,98663.75
2022-09-14T14:37:22.280Z,98642.78
2022-09-14T14:40:12.618Z,98637.53
2022-09-14T14:43:03.490Z,98667.81
2022-09-14T14:45:57.292Z,98674.09
2022-09-14T14:48:45.032Z,98665.34
2022-09-14T14:51:32.764Z,98666.63
2022-09-14T14:54:21.231Z,98662.00
2022-09-14T14:57:10.090Z,98637.16
2022-09-14T14:59:57.795Z,98634.22
2022-09-14T15:02:46.063Z,98640.28
2022-09-14T15:05:33.869Z,98608.72
2022-09-14T15:08:21.645Z,98626.78
2022-09-14T15:11:18.966Z,98613.03
2022-09-14T15:14:11.845Z,98633.56
2022-09-14T15:17:00.394Z,98630.19
2022-09-14T15:19:48.351Z,98637.28
2022-09-14T15:22:36.718Z,98646.88
2022-09-14T15:25:24.434Z,98626.50
2022-09-14T15:28:12.218Z,98623.13
2022-09-14T15:31:03.897Z,98616.69
2022-09-14T15:33:55.150Z,98603.63
2022-09-14T15:36:52.483Z,98593.28
2022-09-14T15:39:40.222Z,98580.69
2022-09-14T15:42:28.098Z,98590.91
2022-09-14T15:45:15.837Z,98601.06
2022-09-14T15:48:03.630Z,98602.31
2022-09-14T15:50:51.324Z,98600.81
2022-09-14T15:53:39.428Z,98596.16
2022-09-14T15:56:27.334Z,98600.97
2022-09-14T15:59:15.080Z,98602.06
2022-09-14T16:02:04.024Z,98580.03
2022-09-14T16:04:52.079Z,98565.81
2022-09-14T16:07:40.051Z,98595.13
2022-09-14T16:10:27.838Z,98589.94
2022-09-14T16:13:15.557Z,98597.00
2022-09-14T16:16:15.959Z,98606.75
2022-09-14T16:19:14.097Z,98603.72
2022-09-14T16:22:01.911Z,98591.84
2022-09-14T16:24:49.665Z,98602.97
2022-09-14T16:27:37.428Z,98608.72
2022-09-14T16:30:25.166Z,98609.88
2022-09-14T16:33:12.972Z,98597.97
2022-09-14T16:36:10.461Z,98601.75
2022-09-14T16:39:04.327Z,98608.59
2022-09-14T16:41:56.185Z,98602.50
2022-09-14T16:44:44.064Z,98608.41
2022-09-14T16:47:32.634Z,98610.00
2022-09-14T16:50:20.387Z,98620.41
2022-09-14T16:53:08.136Z,98613.44
2022-09-14T16:56:07.688Z,98603.72
2022-09-14T16:58:56.467Z,98572.78
2022-09-14T17:01:48.667Z,98585.63
2022-09-14T17:04:39.789Z,98558.72
2022-09-14T17:07:27.637Z,98559.59
2022-09-14T17:10:15.360Z,98562.09
2022-09-14T17:13:03.153Z,98558.81
2022-09-14T17:15:50.985Z,98553.00
2022-09-14T17:18:41.181Z,98611.66
2022-09-14T17:21:36.578Z,98631.75
2022-09-14T17:24:25.820Z,98650.22
2022-09-14T17:27:13.624Z,98616.94
2022-09-14T17:30:01.331Z,98606.69
2022-09-14T17:32:49.070Z,98628.16
2022-09-14T17:35:36.859Z,98614.56
2022-09-14T17:38:28.709Z,98615.28
2022-09-14T17:41:19.850Z,98565.59
2022-09-14T17:44:11.240Z,98615.50
2022-09-14T17:46:59.161Z,98587.13
2022-09-14T17:49:47.134Z,98606.00
2022-09-14T17:52:35.394Z,98635.03
2022-09-14T17:55:23.211Z,98639.56
2022-09-14T17:58:10.958Z,98639.38
2022-09-14T18:01:14.495Z,98646.91
2022-09-14T18:04:10.022Z,98660.19
2022-09-14T18:06:58.074Z,98600.28
2022-09-14T18:09:45.794Z,98648.84
2022-09-14T18:12:36.345Z,98655.00
2022-09-14T18:15:24.043Z,98657.72
2022-09-14T18:18:11.820Z,98645.41
2022-09-14T18:21:00.633Z,98667.16
2022-09-14T18:23:50.817Z,98673.00
2022-09-14T18:26:38.556Z,98657.09
2022-09-14T18:29:27.435Z,98672.91
2022-09-14T18:32:15.180Z,98649.03
2022-09-14T18:35:02.991Z,98638.31
2022-09-14T18:37:50.715Z,98661.13
2022-09-14T18:40:39.071Z,98650.72
2022-09-14T18:43:26.819Z,98672.34
2022-09-14T18:46:15.578Z,98691.72
2022-09-14T18:49:03.670Z,98694.94
2022-09-14T18:51:51.678Z,98686.94
2022-09-14T18:54:39.431Z,98701.88
2022-09-14T18:57:27.998Z,98693.31
2022-09-14T19:00:18.738Z,98715.91
2022-09-14T19:03:06.893Z,98700.34
2022-09-14T19:05:54.668Z,98699.03
2022-09-14T19:08:43.056Z,98701.63
2022-09-14T19:11:31.812Z,98692.97
2022-09-14T19:14:20.600Z,98714.38
2022-09-14T19:17:08.325Z,98717.09
2022-09-14T19:19:56.083Z,98698.28
2022-09-14T19:22:43.844Z,98708.97
2022-09-14T19:25:31.710Z,98709.84
2022-09-14T19:28:19.428Z,98681.41
2022-09-14T19:31:14.139Z,98718.47
2022-09-14T19:34:03.856Z,98716.00
2022-09-14T19:36:53.029Z,98713.81
2022-09-14T19:39:42.243Z,98721.06
2022-09-14T19:42:29.964Z,98725.72
2022-09-14T19:45:18.757Z,98713.69
2022-09-14T19:48:06.491Z,98719.75
2022-09-14T19:51:03.963Z,98737.59
2022-09-14T19:53:54.306Z,98731.41
2022-09-14T19:56:42.500Z,98740.06
2022-09-14T19:59:30.327Z,98754.97
2022-09-14T20:02:18.145Z,98750.78
2022-09-14T20:05:08.258Z,98759.13
2022-09-14T20:07:56.036Z,98747.00
2022-09-14T20:10:43.769Z,98720.81
2022-09-14T20:13:32.424Z,98733.47
2022-09-14T20:16:25.679Z,98750.44
2022-09-14T20:19:16.636Z,98752.38
2022-09-14T20:22:04.342Z,98736.19
2022-09-14T20:24:52.100Z,98739.09
2022-09-14T20:27:42.335Z,98745.13
2022-09-14T20:30:30.134Z,98739.69
2022-09-14T20:33:17.861Z,98748.38
2022-09-14T20:36:12.792Z,98761.00
2022-09-14T20:39:00.878Z,98725.81
2022-09-14T20:41:48.972Z,98756.78
2022-09-14T20:44:36.742Z,98755.66
2022-09-14T20:47:24.780Z,98739.44
2022-09-14T20:50:12.512Z,98752.34
2022-09-14T20:53:00.769Z,98756.41
2022-09-14T20:55:49.141Z,98755.97
2022-09-14T20:58:37.972Z,98764.09
2022-09-14T21:01:29.509Z,98758.56
2022-09-14T21:04:20.958Z,98774.13
2022-09-14T21:07:10.829Z,98766.63
2022-09-14T21:09:59.264Z,98774.88
2022-09-14T21:12:47.235Z,98777.84
2022-09-14T21:15:34.968Z,98775.91
2022-09-14T21:18:22.747Z,98784.09
2022-09-14T21:21:13.981Z,98764.34
2022-09-14T21:24:02.396Z,98769.56
2022-09-14T21:26:50.719Z,98774.63
2022-09-14T21:29:38.608Z,98772.91
2022-09-14T21:32:26.391Z,98791.75
2022-09-14T21:35:14.438Z,98766.31
2022-09-14T21:38:02.194Z,98794.34
2022-09-14T21:40:49.899Z,98793.25
2022-09-14T21:43:40.882Z,98795.31
2022-09-14T21:46:29.093Z,98806.56
2022-09-14T21:49:21.817Z,98762.53
2022-09-14T21:52:09.539Z,98794.78
2022-09-14T21:54:57.457Z,98770.75
2022-09-14T21:57:48.173Z,98795.81
2022-09-14T22:00:36.006Z,98749.34
2022-09-14T22:03:24.057Z,98798.00
2022-09-14T22:06:13.901Z,98796.47
2022-09-14T22:09:02.482Z,98800.81
2022-09-14T22:11:50.334Z,98809.25
2022-09-14T22:14:38.153Z,98799.25
2022-09-14T22:17:29.834Z,98778.09
2022-09-14T22:20:17.634Z,98805.63
2022-09-14T22:23:05.371Z,98799.53
2022-09-14T22:25:53.325Z,98793.78
2022-09-14T22:28:41.073Z,98799.38
2022-09-14T22:31:30.062Z,98792.25
2022-09-14T22:34:18.129Z,98795.63
2022-09-14T22:37:06.369Z,98790.22
2022-09-14T22:39:54.150Z,98802.41
2022-09-14T22:42:41.924Z,98788.97
2022-09-14T22:45:29.677Z,98769.63
2022-09-14T22:48:19.124Z,98798.06
2022-09-14T22:51:10.418Z,98797.34
2022-09-14T22:53:58.286Z,98811.25
2022-09-14T22:56:46.021Z,98791.19
2022-09-14T22:59:33.746Z,98790.66
2022-09-14T23:02:21.524Z,98779.75
2022-09-14T23:05:09.770Z,98809.03
2022-09-14T23:07:57.690Z,98796.31
2022-09-14T23:10:46.595Z,98800.25
2022-09-14T23:13:42.434Z,98803.75
2022-09-14T23:16:31.355Z,98799.13
2022-09-14T23:19:19.448Z,98792.81
2022-09-14T23:22:07.259Z,98803.88
2022-09-14T23:24:55.019Z,98797.28
2022-09-14T23:27:45.212Z,98797.28
2022-09-14T23:30:33.950Z,98788.69
2022-09-14T23:33:21.730Z,98788.50
2022-09-14T23:36:09.513Z,98800.13
2022-09-14T23:38:58.250Z,98795.00
2022-09-14T23:41:46.079Z,98789.47
2022-09-14T23:44:33.905Z,98781.97
2022-09-14T23:47:21.607Z,98776.47
2022-09-14T23:50:09.901Z,98782.78
2022-09-14T23:52:57.779Z,98766.88
2022-09-14T23:55:45.500Z,98784.66
2022-09-14T23:58:33.418Z,98793.31
